createdAt,value
2019-01-18T00:09:35.749Z,96638.38
2019-01-18T00:19:37.250Z,96641.42
2019-01-18T00:29:38.748Z,96642.32
2019-01-18T00:39:40.547Z,96631.00
2019-01-18T00:49:42.056Z,96630.98
2019-01-18T00:59:43.760Z,96633.62
2019-01-18T01:09:45.465Z,96651.73
2019-01-18T01:19:47.272Z,96653.41
2019-01-18T01:29:48.770Z,96655.45
2019-01-18T01:39:50.676Z,96664.20
2019-01-18T01:49:52.149Z,96666.12
2019-01-18T01:59:57.465Z,96687.04
2019-01-18T02:09:59.376Z,96696.23
2019-01-18T02:20:00.896Z,96673.78
2019-01-18T02:30:22.651Z,96663.13
2019-01-18T02:40:24.559Z,96676.03
2019-01-18T02:50:26.057Z,96675.33
2019-01-18T03:00:31.142Z,96684.77
2019-01-18T03:10:33.500Z,96693.85
2019-01-18T03:20:35.267Z,96690.86
2019-01-18T03:30:36.762Z,96684.28
2019-01-18T03:40:42.460Z,96705.56
2019-01-18T03:50:43.957Z,96699.70
2019-01-18T04:00:48.955Z,96701.74
2019-01-18T04:10:50.544Z,96698.86
2019-01-18T04:20:52.040Z,96689.90
2019-01-18T04:30:53.642Z,96715.13
2019-01-18T04:40:55.653Z,96723.97
2019-01-18T04:50:57.252Z,96757.05
2019-01-18T05:01:03.132Z,96769.94
2019-01-18T05:11:04.798Z,96783.39
2019-01-18T05:21:06.486Z,96794.00
2019-01-18T05:31:08.064Z,96799.10
2019-01-18T05:41:09.768Z,96809.09
2019-01-18T05:51:11.265Z,96826.70
2019-01-18T06:01:16.860Z,96828.42
2019-01-18T06:11:18.564Z,96843.75
2019-01-18T06:21:21.515Z,96858.58
2019-01-18T06:31:23.305Z,96878.45
2019-01-18T06:41:26.817Z,96883.48
2019-01-18T06:51:28.374Z,96911.69
2019-01-18T07:01:34.047Z,96918.44
2019-01-18T07:11:35.854Z,96949.16
2019-01-18T07:21:37.343Z,96995.94
2019-01-18T07:31:38.957Z,97018.48
2019-01-18T07:41:40.662Z,97039.11
2019-01-18T07:51:42.162Z,97055.12
2019-01-18T08:01:48.477Z,97080.09
2019-01-18T08:11:50.177Z,97102.84
2019-01-18T08:21:51.784Z,97122.27
2019-01-18T08:31:53.377Z,97126.45
2019-01-18T08:41:55.084Z,97138.13
2019-01-18T08:51:56.577Z,97166.47
2019-01-18T09:01:58.285Z,97187.91
2019-01-18T09:11:59.983Z,97201.36
2019-01-18T09:22:01.588Z,97223.54
2019-01-18T09:32:03.600Z,97228.84
2019-01-18T09:42:05.305Z,97246.20
2019-01-18T09:52:06.884Z,97257.27
2019-01-18T10:02:08.929Z,97263.28
2019-01-18T10:12:10.721Z,97275.64
2019-01-18T10:22:12.629Z,97288.49
2019-01-18T10:32:14.129Z,97283.85
2019-01-18T10:42:15.938Z,97285.36
2019-01-18T10:52:17.449Z,97290.98
2019-01-18T11:02:19.250Z,97293.13
2019-01-18T11:12:20.840Z,97305.97
2019-01-18T11:22:22.446Z,97316.27
2019-01-18T11:32:23.948Z,97308.85
2019-01-18T11:42:25.645Z,97325.95
2019-01-18T11:52:27.249Z,97336.13
2019-01-18T12:36:02.209Z,97395.09
2019-01-18T12:46:03.885Z,97408.69
2019-01-18T12:56:05.678Z,97431.97
2019-01-18T13:06:07.461Z,97440.75
2019-01-18T13:16:17.113Z,97457.97
2019-01-18T13:26:18.548Z,97474.63
2019-01-18T13:36:20.037Z,97470.53
2019-01-18T13:46:21.682Z,97487.41
2019-01-18T13:56:23.320Z,97503.66
2019-01-18T14:06:24.860Z,97522.89
2019-01-18T14:16:26.540Z,97540.86
2019-01-18T14:26:28.020Z,97563.48
2019-01-18T14:36:29.550Z,97587.37
2019-01-18T14:46:30.986Z,97598.34
2019-01-18T14:56:32.561Z,97627.82
2019-01-18T15:06:34.050Z,97651.69
2019-01-18T15:16:35.493Z,97669.14
2019-01-18T15:26:37.087Z,97696.83
2019-01-18T15:36:38.525Z,97704.71
2019-01-18T15:46:39.966Z,97722.20
2019-01-18T15:56:41.640Z,97744.80
2019-01-18T16:06:43.162Z,97758.78
2019-01-18T16:16:44.900Z,97772.94
2019-01-18T16:26:46.411Z,97780.05
2019-01-18T16:36:48.053Z,97789.70
2019-01-18T16:46:49.502Z,97804.83
2019-01-18T16:56:50.995Z,97825.20
2019-01-18T17:06:52.581Z,97827.55
2019-01-18T17:16:54.074Z,97838.39
2019-01-18T17:26:55.517Z,97848.17
2019-01-18T17:36:56.997Z,97850.68
2019-01-18T17:47:13.046Z,97864.77
2019-01-18T17:57:36.698Z,97876.28
2019-01-18T18:07:55.482Z,97883.27
2019-01-18T18:18:05.928Z,97906.16
2019-01-18T18:28:25.243Z,97916.27
2019-01-18T18:38:50.908Z,97924.22
2019-01-18T18:49:18.816Z,97929.84
2019-01-18T18:59:35.170Z,97934.62
2019-01-18T19:10:13.928Z,97949.86
2019-01-18T19:20:23.869Z,97949.79
2019-01-18T19:31:11.206Z,97970.81
2019-01-18T19:41:26.950Z,97985.58
2019-01-18T19:51:51.911Z,98005.71
2019-01-18T20:02:15.697Z,98013.36
2019-01-18T20:12:22.930Z,98023.77
2019-01-18T20:22:47.952Z,98037.45
2019-01-18T20:33:01.277Z,98044.11
2019-01-18T20:43:28.144Z,98051.44
2019-01-18T20:54:14.850Z,98063.59
2019-01-18T21:04:36.597Z,98085.10
2019-01-18T21:14:56.090Z,98079.59
2019-01-18T21:25:31.694Z,98089.32
2019-01-18T21:35:59.739Z,98090.43
2019-01-18T21:46:31.041Z,98100.33
2019-01-18T21:56:38.157Z,98099.05
2019-01-18T22:06:57.668Z,98097.66
2019-01-18T22:17:32.017Z,98098.96
2019-01-18T22:27:47.741Z,98098.65
2019-01-18T22:38:34.766Z,98095.34
2019-01-18T22:49:14.874Z,98098.86
2019-01-18T22:59:55.024Z,98094.30
2019-01-18T23:10:31.134Z,98094.48
2019-01-18T23:20:58.362Z,98098.45
2019-01-18T23:31:22.666Z,98098.56
2019-01-18T23:41:38.830Z,98102.06
2019-01-18T23:51:52.352Z,98095.84
